<?xml version="1.0" encoding="UTF-8" standalone="no" ?>
<gpx xmlns="http://www.topografix.com/GPX/1/1" xmlns:xsi="http://www.w3.org/2001/XMLSchema-instance" xsi:schemaLocation="http://www.topografix.com/GPX/1/1 http://www.topografix.com/GPX/1/1/gpx.xsd" version="1.1" creator="VisuGPX - https://www.visugpx.com">
  <metadata>
    <name>46 - Porte-du-Quercy : boucles au départ du Domaine des Terres Blanches</name>
    <desc><![CDATA[Cet itinéraire fait partie de la collection de EquiLiberté : www.equiliberte.org Circuit NON ACCESSIBLE aux attelages
Ces circuits ont été élaborés par le gîte équestre Domaine des Terres Blanches https://domainedesterresblanches.com/]]></desc>
  </metadata>
  <wpt lat="44.41706" lon="1.15834">
    <ele>172</ele>
    <name><![CDATA[Domaine des Terres Blanches]]></name>
    <type><![CDATA[hotel]]></type>
  </wpt>
  <trk>
    <name><![CDATA[46 - Porte-du-Quercy : Les Terres Blanches : boucle nord - petite 11 km]]></name>
    <trkseg>
      <trkpt lat="44.42153" lon="1.14723">
        <ele>147</ele>
        <time>2021-01-20T18:28:14Z</time>
      </trkpt>
      <trkpt lat="44.42257" lon="1.14881">
        <ele>159</ele>
        <time>2021-01-20T18:30:17Z</time>
      </trkpt>
      <trkpt lat="44.42361" lon="1.15015">
        <ele>167</ele>
        <time>2021-01-20T18:32:10Z</time>
      </trkpt>
      <trkpt lat="44.42465" lon="1.15093">
        <ele>171</ele>
        <time>2021-01-20T18:33:44Z</time>
      </trkpt>
      <trkpt lat="44.42682" lon="1.15075">
        <ele>205</ele>
        <time>2021-01-20T18:36:39Z</time>
      </trkpt>
      <trkpt lat="44.42725" lon="1.15227">
        <ele>196</ele>
        <time>2021-01-20T18:38:12Z</time>
      </trkpt>
      <trkpt lat="44.42725" lon="1.15373">
        <ele>194</ele>
        <time>2021-01-20T18:39:36Z</time>
      </trkpt>
      <trkpt lat="44.42777" lon="1.15567">
        <ele>186</ele>
        <time>2021-01-20T18:41:34Z</time>
      </trkpt>
      <trkpt lat="44.42885" lon="1.15464">
        <ele>175</ele>
        <time>2021-01-20T18:43:19Z</time>
      </trkpt>
      <trkpt lat="44.42989" lon="1.15367">
        <ele>168</ele>
        <time>2021-01-20T18:44:59Z</time>
      </trkpt>
      <trkpt lat="44.43032" lon="1.15482">
        <ele>173</ele>
        <time>2021-01-20T18:46:13Z</time>
      </trkpt>
      <trkpt lat="44.43053" lon="1.15551">
        <ele>176</ele>
        <time>2021-01-20T18:46:56Z</time>
      </trkpt>
      <trkpt lat="44.43058" lon="1.1557">
        <ele>176</ele>
        <time>2021-01-20T18:47:07Z</time>
      </trkpt>
      <trkpt lat="44.43168" lon="1.15673">
        <ele>188</ele>
        <time>2021-01-20T18:48:53Z</time>
      </trkpt>
      <trkpt lat="44.43254" lon="1.1575">
        <ele>203</ele>
        <time>2021-01-20T18:50:15Z</time>
      </trkpt>
      <trkpt lat="44.43297" lon="1.15778">
        <ele>209</ele>
        <time>2021-01-20T18:50:53Z</time>
      </trkpt>
      <trkpt lat="44.43277" lon="1.15905">
        <ele>214</ele>
        <time>2021-01-20T18:52:07Z</time>
      </trkpt>
      <trkpt lat="44.43268" lon="1.15988">
        <ele>218</ele>
        <time>2021-01-20T18:52:55Z</time>
      </trkpt>
      <trkpt lat="44.43265" lon="1.16024">
        <ele>220</ele>
        <time>2021-01-20T18:53:16Z</time>
      </trkpt>
      <trkpt lat="44.43312" lon="1.16031">
        <ele>219</ele>
        <time>2021-01-20T18:53:54Z</time>
      </trkpt>
      <trkpt lat="44.43344" lon="1.16113">
        <ele>223</ele>
        <time>2021-01-20T18:54:47Z</time>
      </trkpt>
      <trkpt lat="44.43412" lon="1.16162">
        <ele>215</ele>
        <time>2021-01-20T18:55:49Z</time>
      </trkpt>
      <trkpt lat="44.4349" lon="1.1631">
        <ele>199</ele>
        <time>2021-01-20T18:57:34Z</time>
      </trkpt>
      <trkpt lat="44.43514" lon="1.16403">
        <ele>199</ele>
        <time>2021-01-20T18:58:30Z</time>
      </trkpt>
      <trkpt lat="44.43588" lon="1.16315">
        <ele>199</ele>
        <time>2021-01-20T18:59:48Z</time>
      </trkpt>
      <trkpt lat="44.43674" lon="1.16203">
        <ele>199</ele>
        <time>2021-01-20T19:01:22Z</time>
      </trkpt>
      <trkpt lat="44.43818" lon="1.16295">
        <ele>200</ele>
        <time>2021-01-20T19:03:29Z</time>
      </trkpt>
      <trkpt lat="44.43887" lon="1.16323">
        <ele>200</ele>
        <time>2021-01-20T19:04:26Z</time>
      </trkpt>
      <trkpt lat="44.43914" lon="1.16297">
        <ele>200</ele>
        <time>2021-01-20T19:04:53Z</time>
      </trkpt>
      <trkpt lat="44.43954" lon="1.16381">
        <ele>207</ele>
        <time>2021-01-20T19:05:50Z</time>
      </trkpt>
      <trkpt lat="44.43939" lon="1.16456">
        <ele>208</ele>
        <time>2021-01-20T19:06:35Z</time>
      </trkpt>
      <trkpt lat="44.43922" lon="1.16559">
        <ele>215</ele>
        <time>2021-01-20T19:07:35Z</time>
      </trkpt>
      <trkpt lat="44.43922" lon="1.16659">
        <ele>223</ele>
        <time>2021-01-20T19:08:32Z</time>
      </trkpt>
      <trkpt lat="44.44005" lon="1.16817">
        <ele>241</ele>
        <time>2021-01-20T19:10:25Z</time>
      </trkpt>
      <trkpt lat="44.44052" lon="1.16896">
        <ele>250</ele>
        <time>2021-01-20T19:11:23Z</time>
      </trkpt>
      <trkpt lat="44.44087" lon="1.16993">
        <ele>257</ele>
        <time>2021-01-20T19:12:25Z</time>
      </trkpt>
      <trkpt lat="44.44107" lon="1.17126">
        <ele>261</ele>
        <time>2021-01-20T19:13:43Z</time>
      </trkpt>
      <trkpt lat="44.44149" lon="1.17203">
        <ele>264</ele>
        <time>2021-01-20T19:14:39Z</time>
      </trkpt>
      <trkpt lat="44.44185" lon="1.17162">
        <ele>265</ele>
        <time>2021-01-20T19:15:16Z</time>
      </trkpt>
      <trkpt lat="44.44181" lon="1.17102">
        <ele>266</ele>
        <time>2021-01-20T19:15:50Z</time>
      </trkpt>
      <trkpt lat="44.44192" lon="1.17033">
        <ele>265</ele>
        <time>2021-01-20T19:16:31Z</time>
      </trkpt>
      <trkpt lat="44.44193" lon="1.16975">
        <ele>264</ele>
        <time>2021-01-20T19:17:04Z</time>
      </trkpt>
      <trkpt lat="44.44244" lon="1.16926">
        <ele>262</ele>
        <time>2021-01-20T19:17:53Z</time>
      </trkpt>
      <trkpt lat="44.44268" lon="1.16881">
        <ele>259</ele>
        <time>2021-01-20T19:18:25Z</time>
      </trkpt>
      <trkpt lat="44.44287" lon="1.16834">
        <ele>257</ele>
        <time>2021-01-20T19:18:56Z</time>
      </trkpt>
      <trkpt lat="44.44306" lon="1.16795">
        <ele>257</ele>
        <time>2021-01-20T19:19:23Z</time>
      </trkpt>
      <trkpt lat="44.44275" lon="1.16451">
        <ele>254</ele>
        <time>2021-01-20T19:22:41Z</time>
      </trkpt>
      <trkpt lat="44.44267" lon="1.16196">
        <ele>237</ele>
        <time>2021-01-20T19:25:07Z</time>
      </trkpt>
      <trkpt lat="44.44289" lon="1.15829">
        <ele>236</ele>
        <time>2021-01-20T19:28:38Z</time>
      </trkpt>
      <trkpt lat="44.44275" lon="1.15543">
        <ele>205</ele>
        <time>2021-01-20T19:31:22Z</time>
      </trkpt>
      <trkpt lat="44.44231" lon="1.15186">
        <ele>223</ele>
        <time>2021-01-20T19:34:49Z</time>
      </trkpt>
      <trkpt lat="44.44114" lon="1.15012">
        <ele>200</ele>
        <time>2021-01-20T19:37:05Z</time>
      </trkpt>
      <trkpt lat="44.44034" lon="1.14971">
        <ele>189</ele>
        <time>2021-01-20T19:38:14Z</time>
      </trkpt>
      <trkpt lat="44.43978" lon="1.14948">
        <ele>185</ele>
        <time>2021-01-20T19:39:00Z</time>
      </trkpt>
      <trkpt lat="44.4399" lon="1.14828">
        <ele>175</ele>
        <time>2021-01-20T19:40:10Z</time>
      </trkpt>
      <trkpt lat="44.44025" lon="1.14683">
        <ele>164</ele>
        <time>2021-01-20T19:41:37Z</time>
      </trkpt>
      <trkpt lat="44.44018" lon="1.14583">
        <ele>166</ele>
        <time>2021-01-20T19:42:35Z</time>
      </trkpt>
      <trkpt lat="44.44034" lon="1.144">
        <ele>158</ele>
        <time>2021-01-20T19:44:20Z</time>
      </trkpt>
      <trkpt lat="44.4402" lon="1.1434">
        <ele>156</ele>
        <time>2021-01-20T19:44:56Z</time>
      </trkpt>
      <trkpt lat="44.44018" lon="1.1423">
        <ele>154</ele>
        <time>2021-01-20T19:45:59Z</time>
      </trkpt>
      <trkpt lat="44.4403" lon="1.14156">
        <ele>149</ele>
        <time>2021-01-20T19:46:42Z</time>
      </trkpt>
      <trkpt lat="44.4401" lon="1.14084">
        <ele>149</ele>
        <time>2021-01-20T19:47:27Z</time>
      </trkpt>
      <trkpt lat="44.43952" lon="1.14008">
        <ele>143</ele>
        <time>2021-01-20T19:48:30Z</time>
      </trkpt>
      <trkpt lat="44.43928" lon="1.13957">
        <ele>137</ele>
        <time>2021-01-20T19:49:05Z</time>
      </trkpt>
      <trkpt lat="44.43948" lon="1.13847">
        <ele>129</ele>
        <time>2021-01-20T19:50:10Z</time>
      </trkpt>
      <trkpt lat="44.43903" lon="1.13788">
        <ele>130</ele>
        <time>2021-01-20T19:50:59Z</time>
      </trkpt>
      <trkpt lat="44.43863" lon="1.13794">
        <ele>134</ele>
        <time>2021-01-20T19:51:32Z</time>
      </trkpt>
      <trkpt lat="44.4381" lon="1.13801">
        <ele>139</ele>
        <time>2021-01-20T19:52:14Z</time>
      </trkpt>
      <trkpt lat="44.43754" lon="1.13814">
        <ele>144</ele>
        <time>2021-01-20T19:53:00Z</time>
      </trkpt>
      <trkpt lat="44.43672" lon="1.13857">
        <ele>155</ele>
        <time>2021-01-20T19:54:10Z</time>
      </trkpt>
      <trkpt lat="44.43662" lon="1.13799">
        <ele>159</ele>
        <time>2021-01-20T19:54:44Z</time>
      </trkpt>
      <trkpt lat="44.43648" lon="1.13722">
        <ele>160</ele>
        <time>2021-01-20T19:55:29Z</time>
      </trkpt>
      <trkpt lat="44.43639" lon="1.13638">
        <ele>154</ele>
        <time>2021-01-20T19:56:18Z</time>
      </trkpt>
      <trkpt lat="44.4363" lon="1.13612">
        <ele>150</ele>
        <time>2021-01-20T19:56:34Z</time>
      </trkpt>
      <trkpt lat="44.43591" lon="1.1363">
        <ele>154</ele>
        <time>2021-01-20T19:57:07Z</time>
      </trkpt>
      <trkpt lat="44.43559" lon="1.13643">
        <ele>155</ele>
        <time>2021-01-20T19:57:34Z</time>
      </trkpt>
      <trkpt lat="44.43511" lon="1.13689">
        <ele>157</ele>
        <time>2021-01-20T19:58:20Z</time>
      </trkpt>
      <trkpt lat="44.43473" lon="1.13796">
        <ele>166</ele>
        <time>2021-01-20T19:59:29Z</time>
      </trkpt>
      <trkpt lat="44.43462" lon="1.13888">
        <ele>174</ele>
        <time>2021-01-20T20:00:22Z</time>
      </trkpt>
      <trkpt lat="44.43435" lon="1.13952">
        <ele>176</ele>
        <time>2021-01-20T20:01:05Z</time>
      </trkpt>
      <trkpt lat="44.43347" lon="1.13982">
        <ele>182</ele>
        <time>2021-01-20T20:02:17Z</time>
      </trkpt>
      <trkpt lat="44.43276" lon="1.13982">
        <ele>186</ele>
        <time>2021-01-20T20:03:14Z</time>
      </trkpt>
      <trkpt lat="44.43159" lon="1.14075">
        <ele>192</ele>
        <time>2021-01-20T20:05:02Z</time>
      </trkpt>
      <trkpt lat="44.43072" lon="1.14212">
        <ele>197</ele>
        <time>2021-01-20T20:06:46Z</time>
      </trkpt>
      <trkpt lat="44.42865" lon="1.14335">
        <ele>193</ele>
        <time>2021-01-20T20:09:47Z</time>
      </trkpt>
      <trkpt lat="44.42597" lon="1.14479">
        <ele>182</ele>
        <time>2021-01-20T20:13:36Z</time>
      </trkpt>
      <trkpt lat="44.42376" lon="1.14566">
        <ele>158</ele>
        <time>2021-01-20T20:16:40Z</time>
      </trkpt>
      <trkpt lat="44.4219" lon="1.14703">
        <ele>148</ele>
        <time>2021-01-20T20:19:28Z</time>
      </trkpt>
      <trkpt lat="44.42045" lon="1.14741">
        <ele>150</ele>
        <time>2021-01-20T20:21:27Z</time>
      </trkpt>
      <trkpt lat="44.4199" lon="1.14728">
        <ele>153</ele>
        <time>2021-01-20T20:22:11Z</time>
      </trkpt>
      <trkpt lat="44.41962" lon="1.14736">
        <ele>152</ele>
        <time>2021-01-20T20:22:34Z</time>
      </trkpt>
      <trkpt lat="44.41941" lon="1.14869">
        <ele>155</ele>
        <time>2021-01-20T20:23:52Z</time>
      </trkpt>
      <trkpt lat="44.41922" lon="1.15041">
        <ele>155</ele>
        <time>2021-01-20T20:25:32Z</time>
      </trkpt>
      <trkpt lat="44.41879" lon="1.15071">
        <ele>157</ele>
        <time>2021-01-20T20:26:10Z</time>
      </trkpt>
      <trkpt lat="44.4183" lon="1.15161">
        <ele>162</ele>
        <time>2021-01-20T20:27:15Z</time>
      </trkpt>
      <trkpt lat="44.41769" lon="1.15268">
        <ele>167</ele>
        <time>2021-01-20T20:28:33Z</time>
      </trkpt>
      <trkpt lat="44.41692" lon="1.15333">
        <ele>176</ele>
        <time>2021-01-20T20:29:45Z</time>
      </trkpt>
      <trkpt lat="44.4163" lon="1.15356">
        <ele>181</ele>
        <time>2021-01-20T20:30:36Z</time>
      </trkpt>
      <trkpt lat="44.41583" lon="1.1545">
        <ele>190</ele>
        <time>2021-01-20T20:31:42Z</time>
      </trkpt>
      <trkpt lat="44.41626" lon="1.15574">
        <ele>183</ele>
        <time>2021-01-20T20:33:01Z</time>
      </trkpt>
      <trkpt lat="44.41641" lon="1.15699">
        <ele>178</ele>
        <time>2021-01-20T20:34:13Z</time>
      </trkpt>
      <trkpt lat="44.41656" lon="1.15781">
        <ele>175</ele>
        <time>2021-01-20T20:35:02Z</time>
      </trkpt>
      <trkpt lat="44.41656" lon="1.15854">
        <ele>174</ele>
        <time>2021-01-20T20:35:43Z</time>
      </trkpt>
      <trkpt lat="44.41656" lon="1.15854">
        <ele>174</ele>
        <time>2021-01-20T20:35:43Z</time>
      </trkpt>
    </trkseg>
  </trk>
</gpx>